createdAt,value
2022-10-22T00:00:07.010Z,95324.03
2022-10-22T00:02:35.065Z,95324.03
2022-10-22T00:05:05.413Z,95326.34
2022-10-22T00:07:33.836Z,95323.31
2022-10-22T00:10:02.027Z,95331.22
2022-10-22T00:12:29.998Z,95333.31
2022-10-22T00:14:58.490Z,95342.69
2022-10-22T00:17:26.514Z,95331.81
2022-10-22T00:19:54.173Z,95347.22
2022-10-22T00:22:23.869Z,95351.38
2022-10-22T00:24:51.496Z,95351.38
2022-10-22T00:27:19.781Z,95356.81
2022-10-22T00:29:49.281Z,95341.53
2022-10-22T00:32:17.570Z,95338.16
2022-10-22T00:34:45.423Z,95328.66
2022-10-22T00:37:13.727Z,95319.50
2022-10-22T00:39:42.979Z,95317.75
2022-10-22T00:42:18.529Z,95323.34
2022-10-22T00:45:15.036Z,95317.19
2022-10-22T00:47:46.013Z,95318.00
2022-10-22T00:50:16.923Z,95329.47
2022-10-22T00:52:45.651Z,95341.28
2022-10-22T00:55:16.033Z,95349.22
2022-10-22T00:57:45.018Z,95350.00
2022-10-22T01:00:13.632Z,95358.81
2022-10-22T01:02:42.304Z,95360.72
2022-10-22T01:05:11.221Z,95361.50
2022-10-22T01:07:43.402Z,95363.25
2022-10-22T01:10:25.727Z,95366.22
2022-10-22T01:13:07.294Z,95356.59
2022-10-22T01:15:42.728Z,95351.97
2022-10-22T01:18:16.923Z,95335.50
2022-10-22T01:21:09.469Z,95334.13
2022-10-22T01:24:12.651Z,95327.28
2022-10-22T01:26:57.938Z,95335.06
2022-10-22T01:29:30.340Z,95340.25
2022-10-22T01:32:01.957Z,95340.75
2022-10-22T01:34:32.013Z,95345.09
2022-10-22T01:37:01.359Z,95354.00
2022-10-22T01:39:31.929Z,95367.81
2022-10-22T01:41:59.561Z,95366.81
2022-10-22T01:44:30.346Z,95368.63
2022-10-22T01:47:08.138Z,95370.47
2022-10-22T01:49:48.818Z,95387.06
2022-10-22T01:52:28.662Z,95382.66
2022-10-22T01:55:19.331Z,95387.47
2022-10-22T01:57:54.847Z,95382.47
2022-10-22T02:00:24.262Z,95390.34
2022-10-22T02:02:59.469Z,95407.25
2022-10-22T02:05:33.422Z,95401.78
2022-10-22T02:08:05.522Z,95406.94
2022-10-22T02:10:33.651Z,95391.63
2022-10-22T02:13:04.186Z,95403.97
2022-10-22T02:15:36.359Z,95400.66
2022-10-22T02:18:07.694Z,95401.69
2022-10-22T02:20:38.143Z,95397.84
2022-10-22T02:23:06.805Z,95400.34
2022-10-22T02:25:40.690Z,95400.16
2022-10-22T02:28:15.839Z,95401.09
2022-10-22T02:30:49.791Z,95404.13
2022-10-22T02:33:21.929Z,95397.16
2022-10-22T02:35:52.803Z,95403.75
2022-10-22T02:38:21.047Z,95398.00
2022-10-22T02:40:49.125Z,95413.06
2022-10-22T02:43:18.376Z,95422.59
2022-10-22T02:45:48.295Z,95415.94
2022-10-22T02:48:15.971Z,95399.44
2022-10-22T02:50:43.942Z,95389.81
2022-10-22T02:53:11.578Z,95378.00
2022-10-22T02:55:39.469Z,95385.22
2022-10-22T02:58:07.117Z,95387.81
2022-10-22T03:00:34.879Z,95401.91
2022-10-22T03:03:03.934Z,95411.91
2022-10-22T03:05:31.858Z,95414.25
2022-10-22T03:07:59.513Z,95409.25
2022-10-22T03:10:27.500Z,95419.44
2022-10-22T03:12:56.052Z,95428.44
2022-10-22T03:15:24.071Z,95437.47
2022-10-22T03:17:51.717Z,95433.47
2022-10-22T03:20:21.341Z,95446.78
2022-10-22T03:22:49.179Z,95443.44
2022-10-22T03:25:20.928Z,95444.25
2022-10-22T03:27:50.655Z,95445.75
2022-10-22T03:30:18.918Z,95439.38
2022-10-22T03:32:46.698Z,95439.66
2022-10-22T03:35:14.353Z,95430.81
2022-10-22T03:37:43.817Z,95444.19
2022-10-22T03:40:13.223Z,95438.84
2022-10-22T03:42:42.527Z,95438.78
2022-10-22T03:45:11.382Z,95439.75
2022-10-22T03:47:39.281Z,95441.16
2022-10-22T03:50:08.910Z,95440.19
2022-10-22T03:52:38.225Z,95438.34
2022-10-22T03:55:09.526Z,95433.84
2022-10-22T03:57:37.363Z,95436.94
2022-10-22T04:00:07.156Z,95425.63
2022-10-22T04:02:34.753Z,95423.41
2022-10-22T04:05:02.767Z,95427.88
2022-10-22T04:07:30.895Z,95429.19
2022-10-22T04:09:58.522Z,95428.69
2022-10-22T04:12:27.609Z,95436.66
2022-10-22T04:14:55.250Z,95451.06
2022-10-22T04:17:22.937Z,95461.50
2022-10-22T04:19:50.562Z,95456.84
2022-10-22T04:22:18.538Z,95467.59
2022-10-22T04:24:46.191Z,95462.53
2022-10-22T04:27:14.717Z,95466.50
2022-10-22T04:29:43.698Z,95472.50
2022-10-22T04:32:11.999Z,95465.94
2022-10-22T04:34:39.612Z,95467.59
2022-10-22T04:37:07.525Z,95471.66
2022-10-22T04:39:35.156Z,95470.50
2022-10-22T04:42:03.826Z,95479.44
2022-10-22T04:44:31.631Z,95483.66
2022-10-22T04:47:00.807Z,95480.31
2022-10-22T04:49:28.587Z,95473.09
2022-10-22T04:51:56.714Z,95475.41
2022-10-22T04:54:26.618Z,95475.06
2022-10-22T04:56:57.275Z,95479.19
2022-10-22T04:59:24.906Z,95469.91
2022-10-22T05:01:52.546Z,95458.75
2022-10-22T05:04:21.583Z,95455.44
2022-10-22T05:06:49.579Z,95444.63
2022-10-22T05:09:19.237Z,95439.78
2022-10-22T05:11:49.222Z,95440.22
2022-10-22T05:14:18.463Z,95448.06
2022-10-22T05:16:48.754Z,95441.53
2022-10-22T05:19:19.883Z,95437.53
2022-10-22T05:21:49.099Z,95436.72
2022-10-22T05:24:17.098Z,95446.53
2022-10-22T05:26:45.145Z,95460.63
2022-10-22T05:29:12.762Z,95462.94
2022-10-22T05:31:41.127Z,95458.06
2022-10-22T05:34:08.765Z,95461.94
2022-10-22T05:36:36.539Z,95459.28
2022-10-22T05:39:06.126Z,95451.03
2022-10-22T05:41:35.596Z,95447.44
2022-10-22T05:44:03.948Z,95433.13
2022-10-22T05:46:35.335Z,95426.31
2022-10-22T05:49:05.400Z,95426.31
2022-10-22T05:51:35.462Z,95413.97
2022-10-22T05:54:06.355Z,95422.56
2022-10-22T05:56:35.693Z,95409.63
2022-10-22T06:01:36.362Z,95414.66
2022-10-22T06:04:06.500Z,95417.00
2022-10-22T06:06:36.536Z,95416.84
2022-10-22T06:09:08.461Z,95426.66
2022-10-22T06:11:36.900Z,95424.16
2022-10-22T06:14:04.954Z,95430.28
2022-10-22T06:16:33.138Z,95441.75
2022-10-22T06:19:01.863Z,95460.22
2022-10-22T06:21:30.286Z,95473.25
2022-10-22T06:23:59.122Z,95481.00
2022-10-22T06:26:28.528Z,95494.38
2022-10-22T06:28:57.012Z,95501.34
2022-10-22T06:31:24.947Z,95502.88
2022-10-22T06:33:52.618Z,95507.31
2022-10-22T06:36:25.289Z,95518.97
2022-10-22T06:38:53.949Z,95525.00
2022-10-22T06:41:25.645Z,95525.19
2022-10-22T06:43:58.605Z,95524.94
2022-10-22T06:46:26.782Z,95525.88
2022-10-22T06:48:56.739Z,95530.31
2022-10-22T06:51:24.513Z,95530.22
2022-10-22T06:53:52.414Z,95544.38
2022-10-22T06:56:23.032Z,95549.44
2022-10-22T06:58:52.001Z,95555.00
2022-10-22T07:01:23.555Z,95557.34
2022-10-22T07:03:52.418Z,95554.69
2022-10-22T07:06:21.597Z,95549.41
2022-10-22T07:08:49.324Z,95559.63
2022-10-22T07:11:19.262Z,95555.03
2022-10-22T07:13:47.706Z,95569.16
2022-10-22T07:16:16.481Z,95569.25
2022-10-22T07:18:46.505Z,95575.91
2022-10-22T07:21:17.333Z,95573.38
2022-10-22T07:23:45.637Z,95563.03
2022-10-22T07:26:16.446Z,95567.53
2022-10-22T07:28:44.528Z,95568.50
2022-10-22T07:31:14.717Z,95578.25
2022-10-22T07:33:42.482Z,95580.19
2022-10-22T07:36:17.984Z,95589.97
2022-10-22T07:38:46.605Z,95590.84
2022-10-22T07:41:14.878Z,95606.53
2022-10-22T07:43:42.667Z,95604.13
2022-10-22T07:46:10.337Z,95606.78
2022-10-22T07:48:39.028Z,95611.78
2022-10-22T07:51:07.564Z,95610.66
2022-10-22T07:53:36.721Z,95610.97
2022-10-22T07:56:04.598Z,95603.28
2022-10-22T07:58:32.613Z,95614.47
2022-10-22T08:01:01.883Z,95604.34
2022-10-22T08:03:30.402Z,95620.16
2022-10-22T08:05:58.369Z,95632.47
2022-10-22T08:08:29.751Z,95637.53
2022-10-22T08:11:01.644Z,95637.44
2022-10-22T08:13:30.470Z,95639.91
2022-10-22T08:15:59.197Z,95636.44
2022-10-22T08:18:27.313Z,95644.03
2022-10-22T08:20:55.624Z,95635.56
2022-10-22T08:23:27.455Z,95628.28
2022-10-22T08:25:57.095Z,95641.28
2022-10-22T08:28:28.628Z,95644.25
2022-10-22T08:30:56.830Z,95656.13
2022-10-22T08:33:24.490Z,95651.91
2022-10-22T08:35:53.477Z,95656.78
2022-10-22T08:38:21.749Z,95655.31
2022-10-22T08:40:52.691Z,95662.03
2022-10-22T08:43:38.959Z,95662.66
2022-10-22T08:46:19.605Z,95658.91
2022-10-22T08:48:50.583Z,95661.03
2022-10-22T08:51:21.799Z,95660.19
2022-10-22T08:54:20.069Z,95669.47
2022-10-22T08:56:57.659Z,95674.16
2022-10-22T08:59:34.275Z,95671.84
2022-10-22T09:02:04.412Z,95668.00
2022-10-22T09:04:38.975Z,95668.09
2022-10-22T09:07:06.669Z,95668.25
2022-10-22T09:09:41.787Z,95663.34
2022-10-22T09:12:20.192Z,95668.13
2022-10-22T09:14:50.025Z,95674.50
2022-10-22T09:17:26.471Z,95674.06
2022-10-22T09:20:03.775Z,95679.16
2022-10-22T09:22:39.632Z,95676.72
2022-10-22T09:25:20.534Z,95679.88
2022-10-22T09:27:49.353Z,95684.97
2022-10-22T09:30:20.847Z,95690.41
2022-10-22T09:32:55.513Z,95689.47
2022-10-22T09:35:25.205Z,95686.19
2022-10-22T09:37:56.221Z,95691.63
2022-10-22T09:40:24.784Z,95688.28
2022-10-22T09:42:52.662Z,95694.13
2022-10-22T09:45:26.644Z,95697.56
2022-10-22T09:48:11.401Z,95694.63
2022-10-22T09:50:43.997Z,95700.97
2022-10-22T09:53:19.989Z,95697.06
2022-10-22T09:55:53.008Z,95712.38
2022-10-22T09:58:20.991Z,95712.56
2022-10-22T10:00:54.626Z,95701.69
2022-10-22T10:03:25.275Z,95704.63
2022-10-22T10:05:56.325Z,95696.91
2022-10-22T10:08:25.394Z,95697.56
2022-10-22T10:10:57.565Z,95702.44
2022-10-22T10:13:39.391Z,95706.25
2022-10-22T10:16:17.268Z,95705.78
2022-10-22T10:19:02.499Z,95705.31
2022-10-22T10:21:38.000Z,95701.97
2022-10-22T10:24:14.591Z,95696.56
2022-10-22T10:26:50.856Z,95703.97
2022-10-22T10:29:32.446Z,95707.59
2022-10-22T10:32:32.177Z,95707.00
2022-10-22T10:35:10.494Z,95717.56
2022-10-22T10:37:46.274Z,95709.03
2022-10-22T10:40:25.207Z,95709.34
2022-10-22T10:42:59.774Z,95709.03
2022-10-22T10:45:34.051Z,95716.50
2022-10-22T10:48:13.533Z,95715.34
2022-10-22T10:50:52.782Z,95723.34
2022-10-22T10:53:30.746Z,95721.59
2022-10-22T10:56:05.108Z,95726.13
2022-10-22T10:58:45.208Z,95711.84
2022-10-22T11:01:21.444Z,95715.75
2022-10-22T11:04:14.320Z,95722.91
2022-10-22T11:06:44.151Z,95712.09
2022-10-22T11:09:23.564Z,95723.78
2022-10-22T11:11:54.966Z,95721.91
2022-10-22T11:14:29.977Z,95718.59
2022-10-22T11:17:02.851Z,95710.88
2022-10-22T11:19:57.853Z,95718.78
2022-10-22T11:22:30.810Z,95717.41
2022-10-22T11:25:04.573Z,95713.22
2022-10-22T11:27:38.642Z,95711.91
2022-10-22T11:30:13.602Z,95722.25
2022-10-22T11:32:45.307Z,95710.34
2022-10-22T11:35:23.482Z,95708.13
2022-10-22T11:37:56.084Z,95712.47
2022-10-22T11:40:33.870Z,95709.47
2022-10-22T11:43:06.322Z,95711.50
2022-10-22T11:45:37.262Z,95712.66
2022-10-22T11:48:19.334Z,95704.56
2022-10-22T11:50:53.075Z,95708.44
2022-10-22T11:53:31.861Z,95700.16
2022-10-22T11:56:05.889Z,95711.69
2022-10-22T11:58:42.134Z,95700.63
2022-10-22T12:01:24.550Z,95711.31
2022-10-22T12:03:53.485Z,95701.44
2022-10-22T12:06:25.181Z,95703.56
2022-10-22T12:08:59.763Z,95691.88
2022-10-22T12:11:30.535Z,95707.31
2022-10-22T12:14:04.846Z,95697.13
2022-10-22T12:16:56.549Z,95698.41
2022-10-22T12:19:31.805Z,95698.16
2022-10-22T12:22:12.027Z,95695.13
2022-10-22T12:24:42.625Z,95694.16
2022-10-22T12:27:22.421Z,95680.25
2022-10-22T12:29:55.402Z,95681.84
2022-10-22T12:32:24.227Z,95688.13
2022-10-22T12:34:53.830Z,95689.06
2022-10-22T12:37:23.409Z,95681.81
2022-10-22T12:39:52.297Z,95672.06
2022-10-22T12:42:22.293Z,95680.25
2022-10-22T12:44:55.308Z,95669.81
2022-10-22T12:47:23.502Z,95675.69
2022-10-22T12:49:51.793Z,95681.50
2022-10-22T12:52:22.757Z,95677.59
2022-10-22T12:54:54.728Z,95683.13
2022-10-22T12:57:24.652Z,95682.06
2022-10-22T12:59:52.915Z,95676.19
2022-10-22T13:02:24.306Z,95683.09
2022-10-22T13:05:16.748Z,95680.19
2022-10-22T13:07:48.453Z,95683.44
2022-10-22T13:10:20.652Z,95677.91
2022-10-22T13:12:55.389Z,95671.22
2022-10-22T13:15:34.446Z,95666.03
2022-10-22T13:18:07.991Z,95668.56
2022-10-22T13:20:37.360Z,95668.81
2022-10-22T13:23:06.874Z,95660.38
2022-10-22T13:25:38.900Z,95672.56
2022-10-22T13:28:20.576Z,95665.50
2022-10-22T13:30:55.027Z,95669.41
2022-10-22T13:33:26.586Z,95682.22
2022-10-22T13:35:56.011Z,95681.41
2022-10-22T13:38:25.352Z,95678.22
2022-10-22T13:40:55.650Z,95680.50
2022-10-22T13:43:23.324Z,95670.25
2022-10-22T13:45:55.462Z,95671.38
2022-10-22T13:48:26.072Z,95668.94
2022-10-22T13:50:54.959Z,95675.63
2022-10-22T13:53:24.983Z,95682.31
2022-10-22T13:55:56.398Z,95677.97
2022-10-22T13:58:25.486Z,95674.91
2022-10-22T14:00:57.878Z,95680.09
2022-10-22T14:03:29.125Z,95683.47
2022-10-22T14:05:57.376Z,95685.38
2022-10-22T14:08:26.858Z,95689.59
2022-10-22T14:10:56.614Z,95688.56
2022-10-22T14:13:24.594Z,95681.47
2022-10-22T14:15:53.558Z,95680.03
2022-10-22T14:18:26.341Z,95692.13
2022-10-22T14:20:56.082Z,95680.91
2022-10-22T14:23:26.493Z,95683.81
2022-10-22T14:25:56.605Z,95686.69
2022-10-22T14:28:24.294Z,95693.88
2022-10-22T14:30:53.261Z,95688.81
2022-10-22T14:33:29.025Z,95686.69
2022-10-22T14:36:00.116Z,95687.66
2022-10-22T14:38:28.367Z,95689.38
2022-10-22T14:40:58.371Z,95683.19
2022-10-22T14:43:28.426Z,95684.16
2022-10-22T14:45:56.714Z,95688.63
2022-10-22T14:48:24.775Z,95696.09
2022-10-22T14:50:53.036Z,95694.47
2022-10-22T14:53:20.761Z,95687.97
2022-10-22T14:55:49.619Z,95696.06
2022-10-22T14:58:18.646Z,95690.09
2022-10-22T15:00:46.692Z,95696.59
2022-10-22T15:03:14.388Z,95690.09
2022-10-22T15:05:44.313Z,95694.56
2022-10-22T15:08:13.041Z,95699.84
2022-10-22T15:10:41.604Z,95699.63
2022-10-22T15:13:09.388Z,95695.78
2022-10-22T15:15:40.816Z,95694.53
2022-10-22T15:18:08.697Z,95706.28
2022-10-22T15:20:36.637Z,95708.28
2022-10-22T15:23:04.760Z,95711.28
2022-10-22T15:25:32.376Z,95712.97
2022-10-22T15:28:04.624Z,95709.16
2022-10-22T15:30:38.314Z,95720.94
2022-10-22T15:33:06.162Z,95716.16
2022-10-22T15:35:34.218Z,95722.06
2022-10-22T15:38:02.189Z,95722.88
2022-10-22T15:40:29.830Z,95724.53
2022-10-22T15:42:57.858Z,95732.59
2022-10-22T15:45:25.740Z,95726.50
2022-10-22T15:47:55.467Z,95729.25
2022-10-22T15:50:23.111Z,95734.34
2022-10-22T15:52:51.552Z,95740.00
2022-10-22T15:55:19.392Z,95738.19
2022-10-22T15:57:47.444Z,95742.66
2022-10-22T16:00:15.949Z,95749.69
2022-10-22T16:02:44.299Z,95743.91
2022-10-22T16:05:13.245Z,95749.06
2022-10-22T16:07:41.975Z,95747.19
2022-10-22T16:10:12.668Z,95739.50
2022-10-22T16:12:42.639Z,95756.09
2022-10-22T16:15:11.519Z,95744.56
2022-10-22T16:17:39.511Z,95756.69
2022-10-22T16:20:08.034Z,95745.31
2022-10-22T16:22:37.424Z,95758.22
2022-10-22T16:25:05.683Z,95743.91
2022-10-22T16:27:33.831Z,95750.66
2022-10-22T16:30:01.447Z,95757.34
2022-10-22T16:32:29.463Z,95752.81
2022-10-22T16:34:57.098Z,95750.47
2022-10-22T16:37:25.132Z,95749.78
2022-10-22T16:39:54.098Z,95751.72
2022-10-22T16:42:22.255Z,95756.38
2022-10-22T16:44:49.865Z,95756.94
2022-10-22T16:47:18.010Z,95761.66
2022-10-22T16:49:45.650Z,95765.09
2022-10-22T16:52:13.758Z,95760.66
2022-10-22T16:54:41.378Z,95757.47
2022-10-22T16:57:12.299Z,95762.16
2022-10-22T16:59:39.934Z,95767.22
2022-10-22T17:02:08.046Z,95760.34
2022-10-22T17:04:35.785Z,95763.53
2022-10-22T17:07:04.145Z,95771.81
2022-10-22T17:09:31.798Z,95768.41
2022-10-22T17:11:59.830Z,95770.50
2022-10-22T17:14:28.818Z,95775.06
2022-10-22T17:16:56.786Z,95786.31
2022-10-22T17:19:25.072Z,95789.25
2022-10-22T17:21:53.583Z,95794.72
2022-10-22T17:24:21.391Z,95792.28
2022-10-22T17:26:49.742Z,95792.78
2022-10-22T17:29:18.070Z,95798.59
2022-10-22T17:31:47.581Z,95801.97
2022-10-22T17:34:17.756Z,95796.22
2022-10-22T17:36:46.161Z,95799.13
2022-10-22T17:39:18.578Z,95811.63
2022-10-22T17:41:47.379Z,95809.81
2022-10-22T17:44:16.794Z,95813.56
2022-10-22T17:46:45.422Z,95819.97
2022-10-22T17:49:19.648Z,95819.88
2022-10-22T17:51:47.908Z,95815.84
2022-10-22T17:54:15.653Z,95824.47
2022-10-22T17:56:43.313Z,95822.66
2022-10-22T17:59:14.122Z,95815.06
2022-10-22T18:01:46.052Z,95805.25
2022-10-22T18:04:18.439Z,95800.38
2022-10-22T18:06:47.567Z,95810.59
2022-10-22T18:09:18.716Z,95819.22
2022-10-22T18:11:47.839Z,95813.28
2022-10-22T18:14:15.864Z,95823.28
2022-10-22T18:16:44.165Z,95824.94
2022-10-22T18:19:13.469Z,95822.09
2022-10-22T18:21:42.890Z,95823.56
2022-10-22T18:24:11.125Z,95828.22
2022-10-22T18:26:39.832Z,95832.00
2022-10-22T18:29:07.747Z,95827.91
2022-10-22T18:31:35.644Z,95827.88
2022-10-22T18:34:03.286Z,95831.78
2022-10-22T18:36:31.296Z,95820.13
2022-10-22T18:39:02.414Z,95823.38
2022-10-22T18:41:32.727Z,95818.06
2022-10-22T18:44:02.794Z,95822.56
2022-10-22T18:46:32.186Z,95821.75
2022-10-22T18:49:00.231Z,95816.66
2022-10-22T18:51:30.921Z,95816.88
2022-10-22T18:54:05.737Z,95813.38
2022-10-22T18:56:46.515Z,95814.59
2022-10-22T18:59:19.178Z,95815.63
2022-10-22T19:01:47.383Z,95808.25
2022-10-22T19:04:15.437Z,95799.69
2022-10-22T19:06:45.775Z,95806.41
2022-10-22T19:09:15.677Z,95804.19
2022-10-22T19:11:45.453Z,95813.56
2022-10-22T19:14:13.788Z,95806.22
2022-10-22T19:16:42.017Z,95814.59
2022-10-22T19:19:09.978Z,95821.38
2022-10-22T19:21:39.450Z,95815.63
2022-10-22T19:24:07.756Z,95815.63
2022-10-22T19:26:37.297Z,95813.38
2022-10-22T19:29:05.402Z,95817.25
2022-10-22T19:31:34.169Z,95813.19
2022-10-22T19:34:04.297Z,95811.94
2022-10-22T19:36:34.661Z,95818.06
2022-10-22T19:39:02.796Z,95813.19
2022-10-22T19:41:32.198Z,95805.00
2022-10-22T19:44:01.721Z,95811.16
2022-10-22T19:46:32.456Z,95814.19
2022-10-22T19:49:00.502Z,95813.38
2022-10-22T19:51:30.864Z,95816.03
2022-10-22T19:54:00.315Z,95816.06
2022-10-22T19:56:28.210Z,95814.41
2022-10-22T19:58:55.933Z,95805.81
2022-10-22T20:01:25.700Z,95805.84
2022-10-22T20:03:54.080Z,95804.22
2022-10-22T20:06:22.407Z,95816.06
2022-10-22T20:08:53.761Z,95814.41
2022-10-22T20:11:26.351Z,95823.41
2022-10-22T20:13:54.149Z,95829.91
2022-10-22T20:16:24.594Z,95839.09
2022-10-22T20:18:53.779Z,95835.59
2022-10-22T20:21:22.600Z,95832.31
2022-10-22T20:23:54.095Z,95829.88
2022-10-22T20:26:23.832Z,95824.56
2022-10-22T20:28:51.649Z,95819.28
2022-10-22T20:31:21.589Z,95820.28
2022-10-22T20:33:50.780Z,95824.59
2022-10-22T20:36:23.221Z,95822.94
2022-10-22T20:38:51.727Z,95818.47
2022-10-22T20:41:21.428Z,95808.84
2022-10-22T20:43:51.262Z,95815.19
2022-10-22T20:46:20.964Z,95829.09
2022-10-22T20:48:48.686Z,95840.13
2022-10-22T20:51:16.333Z,95831.13
2022-10-22T20:53:45.355Z,95828.66
2022-10-22T20:56:13.772Z,95832.53
2022-10-22T20:58:47.578Z,95823.78
2022-10-22T21:01:21.847Z,95828.25
2022-10-22T21:03:50.273Z,95819.66
2022-10-22T21:06:20.995Z,95823.13
2022-10-22T21:08:50.442Z,95828.63
2022-10-22T21:11:19.399Z,95829.25
2022-10-22T21:13:47.273Z,95824.56
2022-10-22T21:16:18.348Z,95822.53
2022-10-22T21:18:46.466Z,95832.72
2022-10-22T21:21:16.945Z,95844.19
2022-10-22T21:23:44.594Z,95841.31
2022-10-22T21:26:14.113Z,95845.00
2022-10-22T21:28:41.726Z,95837.03
2022-10-22T21:31:18.517Z,95841.13
2022-10-22T21:33:46.130Z,95836.81
2022-10-22T21:36:15.554Z,95832.94
2022-10-22T21:38:44.919Z,95827.03
2022-10-22T21:41:17.792Z,95831.31
2022-10-22T21:43:46.821Z,95832.72
2022-10-22T21:46:16.314Z,95830.06
2022-10-22T21:48:44.342Z,95831.47
2022-10-22T21:51:14.037Z,95830.25
2022-10-22T21:53:42.193Z,95827.78
2022-10-22T21:56:16.833Z,95830.63
2022-10-22T21:58:45.401Z,95819.59
2022-10-22T22:01:14.514Z,95809.78
2022-10-22T22:03:43.536Z,95814.84
2022-10-22T22:06:11.624Z,95813.03
2022-10-22T22:08:39.860Z,95811.38
2022-10-22T22:11:10.041Z,95817.06
2022-10-22T22:13:40.274Z,95816.25
2022-10-22T22:16:10.437Z,95816.25
2022-10-22T22:18:38.833Z,95811.75
2022-10-22T22:21:08.877Z,95806.66
2022-10-22T22:23:38.173Z,95815.03
2022-10-22T22:26:06.880Z,95808.91
2022-10-22T22:28:35.644Z,95811.75
2022-10-22T22:31:13.801Z,95806.47
2022-10-22T22:33:41.501Z,95801.75
2022-10-22T22:36:10.502Z,95796.63
2022-10-22T22:38:38.443Z,95798.47
2022-10-22T22:41:07.423Z,95799.09
2022-10-22T22:43:35.896Z,95795.41
2022-10-22T22:46:07.427Z,95784.81
2022-10-22T22:48:35.602Z,95788.50
2022-10-22T22:51:04.035Z,95796.25
2022-10-22T22:53:31.792Z,95787.25
2022-10-22T22:56:19.434Z,95786.84
2022-10-22T22:58:47.414Z,95788.03
2022-10-22T23:01:19.491Z,95786.75
2022-10-22T23:03:49.493Z,95772.59
2022-10-22T23:06:18.083Z,95767.47
2022-10-22T23:08:49.321Z,95771.94
2022-10-22T23:11:17.603Z,95773.88
2022-10-22T23:13:45.344Z,95770.16
2022-10-22T23:16:16.197Z,95767.66
2022-10-22T23:18:46.474Z,95773.31
2022-10-22T23:21:17.186Z,95770.06
2022-10-22T23:23:45.696Z,95769.50
2022-10-22T23:26:15.023Z,95761.09
2022-10-22T23:28:42.677Z,95764.56
2022-10-22T23:31:13.640Z,95768.69
2022-10-22T23:33:41.696Z,95767.84
2022-10-22T23:36:12.341Z,95770.31
2022-10-22T23:38:41.440Z,95763.81
2022-10-22T23:41:09.834Z,95761.72
2022-10-22T23:43:38.421Z,95759.47
2022-10-22T23:46:08.476Z,95758.03
2022-10-22T23:48:36.371Z,95750.72
2022-10-22T23:51:09.489Z,95746.22
2022-10-22T23:53:39.210Z,95748.69
2022-10-22T23:56:09.455Z,95741.34
2022-10-22T23:58:37.623Z,95743.16
